sensor_id;sensor_type;location;lat;lon;timestamp;pressure;altitude;pressure_sealevel;temperature;humidity
34297;BME280;20564;42.902;25.336;2023-01-31T00:01:28;96665.72;;;-2.02;99.45
34297;BME280;20564;42.902;25.336;2023-01-31T00:03:58;96666.78;;;-2.06;100.00
34297;BME280;20564;42.902;25.336;2023-01-31T00:06:28;96675.97;;;-2.01;100.00
34297;BME280;20564;42.902;25.336;2023-01-31T00:08:57;96672.47;;;-2.00;100.00
34297;BME280;20564;42.902;25.336;2023-01-31T00:11:26;96682.41;;;-1.92;100.00
34297;BME280;20564;42.902;25.336;2023-01-31T00:13:56;96681.47;;;-1.91;100.00
34297;BME280;20564;42.902;25.336;2023-01-31T00:16:26;96662.53;;;-1.90;100.00
34297;BME280;20564;42.902;25.336;2023-01-31T00:18:54;96675.50;;;-1.91;100.00
34297;BME280;20564;42.902;25.336;2023-01-31T00:21:25;96674.22;;;-2.00;100.00
34297;BME280;20564;42.902;25.336;2023-01-31T00:23:53;96666.63;;;-2.03;100.00
34297;BME280;20564;42.902;25.336;2023-01-31T00:26:24;96667.31;;;-2.17;100.00
34297;BME280;20564;42.902;25.336;2023-01-31T00:28:53;96681.03;;;-2.16;100.00
34297;BME280;20564;42.902;25.336;2023-01-31T00:31:22;96667.53;;;-2.22;100.00
34297;BME280;20564;42.902;25.336;2023-01-31T00:33:51;96673.13;;;-2.31;100.00
34297;BME280;20564;42.902;25.336;2023-01-31T00:36:25;96676.31;;;-2.26;100.00
34297;BME280;20564;42.902;25.336;2023-01-31T00:38:56;96679.59;;;-2.22;100.00
34297;BME280;20564;42.902;25.336;2023-01-31T00:41:25;96682.53;;;-2.12;100.00
34297;BME280;20564;42.902;25.336;2023-01-31T00:43:53;96668.44;;;-2.05;100.00
34297;BME280;20564;42.902;25.336;2023-01-31T00:46:20;96673.75;;;-2.08;100.00
34297;BME280;20564;42.902;25.336;2023-01-31T00:48:48;96673.75;;;-2.08;100.00
34297;BME280;20564;42.902;25.336;2023-01-31T00:51:16;96673.09;;;-2.12;100.00
34297;BME280;20564;42.902;25.336;2023-01-31T00:53:43;96673.75;;;-2.08;100.00
34297;BME280;20564;42.902;25.336;2023-01-31T00:56:14;96654.13;;;-2.11;100.00
34297;BME280;20564;42.902;25.336;2023-01-31T00:58:41;96653.44;;;-2.14;100.00
34297;BME280;20564;42.902;25.336;2023-01-31T01:01:17;96653.13;;;-2.08;100.00
34297;BME280;20564;42.902;25.336;2023-01-31T01:03:44;96658.75;;;-2.00;100.00
34297;BME280;20564;42.902;25.336;2023-01-31T01:06:12;96649.03;;;-1.95;100.00
34297;BME280;20564;42.902;25.336;2023-01-31T01:08:40;96653.88;;;-1.89;100.00
34297;BME280;20564;42.902;25.336;2023-01-31T01:11:14;96654.91;;;-1.76;100.00
34297;BME280;20564;42.902;25.336;2023-01-31T01:13:41;96658.16;;;-1.72;100.00
34297;BME280;20564;42.902;25.336;2023-01-31T01:16:13;96671.06;;;-1.72;100.00
34297;BME280;20564;42.902;25.336;2023-01-31T01:18:40;96665.69;;;-1.67;100.00
34297;BME280;20564;42.902;25.336;2023-01-31T01:21:10;96679.94;;;-1.60;100.00
34297;BME280;20564;42.902;25.336;2023-01-31T01:23:39;96681.47;;;-1.56;100.00
34297;BME280;20564;42.902;25.336;2023-01-31T01:26:39;96677.41;;;-1.44;100.00
34297;BME280;20564;42.902;25.336;2023-01-31T01:29:08;96668.69;;;-1.42;100.00
34297;BME280;20564;42.902;25.336;2023-01-31T01:31:41;96667.75;;;-1.41;100.00
34297;BME280;20564;42.902;25.336;2023-01-31T01:34:13;96659.72;;;-1.35;100.00
34297;BME280;20564;42.902;25.336;2023-01-31T01:36:42;96653.53;;;-1.32;100.00
34297;BME280;20564;42.902;25.336;2023-01-31T01:39:20;96644.88;;;-1.31;100.00
34297;BME280;20564;42.902;25.336;2023-01-31T01:41:51;96652.91;;;-1.20;100.00
34297;BME280;20564;42.902;25.336;2023-01-31T01:44:47;96644.13;;;-1.17;100.00
34297;BME280;20564;42.902;25.336;2023-01-31T01:50:22;96636.41;;;-1.02;100.00
34297;BME280;20564;42.902;25.336;2023-01-31T01:53:11;96629.50;;;-1.01;100.00
34297;BME280;20564;42.902;25.336;2023-01-31T01:58:29;96629.25;;;-0.97;100.00
34297;BME280;20564;42.902;25.336;2023-01-31T02:00:58;96628.91;;;-0.90;100.00
34297;BME280;20564;42.902;25.336;2023-01-31T02:03:38;96616.66;;;-0.87;100.00
34297;BME280;20564;42.902;25.336;2023-01-31T02:06:07;96615.56;;;-0.83;100.00
34297;BME280;20564;42.902;25.336;2023-01-31T02:08:40;96605.97;;;-0.81;100.00
34297;BME280;20564;42.902;25.336;2023-01-31T02:11:29;96610.97;;;-0.78;100.00
34297;BME280;20564;42.902;25.336;2023-01-31T02:14:08;96603.06;;;-0.75;100.00
34297;BME280;20564;42.902;25.336;2023-01-31T02:16:37;96611.50;;;-0.87;100.00
34297;BME280;20564;42.902;25.336;2023-01-31T02:19:23;96603.06;;;-0.75;100.00
34297;BME280;20564;42.902;25.336;2023-01-31T02:22:25;96601.56;;;-0.79;100.00
34297;BME280;20564;42.902;25.336;2023-01-31T02:31:14;96609.47;;;-0.82;100.00
34297;BME280;20564;42.902;25.336;2023-01-31T02:34:25;96611.34;;;-0.84;100.00
34297;BME280;20564;42.902;25.336;2023-01-31T02:37:16;96610.41;;;-0.83;100.00
34297;BME280;20564;42.902;25.336;2023-01-31T02:40:01;96615.41;;;-0.80;100.00
34297;BME280;20564;42.902;25.336;2023-01-31T02:45:18;96614.97;;;-0.72;100.00
34297;BME280;20564;42.902;25.336;2023-01-31T02:48:26;96603.88;;;-0.74;100.00
34297;BME280;20564;42.902;25.336;2023-01-31T02:50:59;96616.16;;;-0.62;100.00
34297;BME280;20564;42.902;25.336;2023-01-31T02:53:38;96612.69;;;-0.62;100.00
34297;BME280;20564;42.902;25.336;2023-01-31T02:56:15;96614.72;;;-0.67;100.00
34297;BME280;20564;42.902;25.336;2023-01-31T02:59:07;96611.56;;;-0.73;100.00
34297;BME280;20564;42.902;25.336;2023-01-31T03:01:45;96618.91;;;-0.65;100.00
34297;BME280;20564;42.902;25.336;2023-01-31T03:04:14;96623.69;;;-0.59;100.00
34297;BME280;20564;42.902;25.336;2023-01-31T03:06:51;96620.38;;;-0.61;100.00
34297;BME280;20564;42.902;25.336;2023-01-31T03:09:36;96620.56;;;-0.64;100.00
34297;BME280;20564;42.902;25.336;2023-01-31T03:12:30;96617.88;;;-0.62;100.00
34297;BME280;20564;42.902;25.336;2023-01-31T03:15:26;96628.22;;;-0.62;100.00
34297;BME280;20564;42.902;25.336;2023-01-31T03:18:23;96622.88;;;-0.59;100.00
34297;BME280;20564;42.902;25.336;2023-01-31T03:21:06;96630.06;;;-0.64;100.00
34297;BME280;20564;42.902;25.336;2023-01-31T03:23:36;96625.47;;;-0.59;100.00
34297;BME280;20564;42.902;25.336;2023-01-31T03:26:08;96632.38;;;-0.60;100.00
34297;BME280;20564;42.902;25.336;2023-01-31T03:28:39;96631.56;;;-0.60;100.00
34297;BME280;20564;42.902;25.336;2023-01-31T03:31:22;96637.66;;;-0.61;100.00
34297;BME280;20564;42.902;25.336;2023-01-31T03:33:57;96629.22;;;-0.65;100.00
34297;BME280;20564;42.902;25.336;2023-01-31T03:42:29;96647.88;;;-0.60;100.00
34297;BME280;20564;42.902;25.336;2023-01-31T03:44:48;96644.31;;;-0.57;100.00
34297;BME280;20564;42.902;25.336;2023-01-31T03:47:25;96645.97;;;-0.56;100.00
34297;BME280;20564;42.902;25.336;2023-01-31T03:49:58;96648.28;;;-0.52;100.00
34297;BME280;20564;42.902;25.336;2023-01-31T03:52:36;96658.56;;;-0.50;100.00
34297;BME280;20564;42.902;25.336;2023-01-31T03:55:18;96648.72;;;-0.43;100.00
34297;BME280;20564;42.902;25.336;2023-01-31T03:57:54;96661.22;;;-0.36;97.53
34297;BME280;20564;42.902;25.336;2023-01-31T04:00:24;96660.78;;;-0.28;96.26
34297;BME280;20564;42.902;25.336;2023-01-31T04:03:09;96649.06;;;-0.19;95.42
34297;BME280;20564;42.902;25.336;2023-01-31T04:05:42;96646.31;;;-0.16;95.79
34297;BME280;20564;42.902;25.336;2023-01-31T04:08:11;96647.97;;;-0.15;95.00
34297;BME280;20564;42.902;25.336;2023-01-31T04:10:40;96646.97;;;-0.13;96.26
34297;BME280;20564;42.902;25.336;2023-01-31T04:13:07;96653.94;;;0.01;94.29
34297;BME280;20564;42.902;25.336;2023-01-31T04:15:34;96637.75;;;-0.03;93.68
34297;BME280;20564;42.902;25.336;2023-01-31T04:18:01;96644.91;;;0.08;92.40
34297;BME280;20564;42.902;25.336;2023-01-31T04:20:31;96658.41;;;0.13;93.53
34297;BME280;20564;42.902;25.336;2023-01-31T04:22:58;96654.88;;;0.14;94.25
34297;BME280;20564;42.902;25.336;2023-01-31T04:25:25;96652.13;;;0.17;93.70
34297;BME280;20564;42.902;25.336;2023-01-31T04:27:52;96652.28;;;0.14;94.06
34297;BME280;20564;42.902;25.336;2023-01-31T04:30:19;96658.03;;;0.19;93.69
34297;BME280;20564;42.902;25.336;2023-01-31T04:32:46;96652.69;;;0.22;94.24
34297;BME280;20564;42.902;25.336;2023-01-31T04:35:14;96656.00;;;0.24;93.91
34297;BME280;20564;42.902;25.336;2023-01-31T04:37:41;96670.19;;;0.33;93.60
34297;BME280;20564;42.902;25.336;2023-01-31T04:40:12;96665.19;;;0.30;92.32
34297;BME280;20564;42.902;25.336;2023-01-31T04:42:40;96674.72;;;0.30;92.26
34297;BME280;20564;42.902;25.336;2023-01-31T04:45:07;96691.91;;;0.31;92.57
34297;BME280;20564;42.902;25.336;2023-01-31T04:47:36;96691.91;;;0.31;93.51
34297;BME280;20564;42.902;25.336;2023-01-31T04:50:12;96681.63;;;0.29;93.92
34297;BME280;20564;42.902;25.336;2023-01-31T04:52:39;96690.91;;;0.33;93.22
34297;BME280;20564;42.902;25.336;2023-01-31T04:55:06;96688.72;;;0.26;92.95
34297;BME280;20564;42.902;25.336;2023-01-31T04:57:33;96700.59;;;0.30;93.86
34297;BME280;20564;42.902;25.336;2023-01-31T05:00:00;96690.25;;;0.30;94.58
34297;BME280;20564;42.902;25.336;2023-01-31T05:02:27;96676.00;;;0.22;95.18
34297;BME280;20564;42.902;25.336;2023-01-31T05:04:56;96673.75;;;0.16;95.70
34297;BME280;20564;42.902;25.336;2023-01-31T05:07:25;96685.56;;;0.20;96.08
34297;BME280;20564;42.902;25.336;2023-01-31T05:09:52;96691.69;;;0.19;96.69
34297;BME280;20564;42.902;25.336;2023-01-31T05:12:19;96690.75;;;0.20;97.61
34297;BME280;20564;42.902;25.336;2023-01-31T05:14:46;96701.59;;;0.27;97.37
34297;BME280;20564;42.902;25.336;2023-01-31T05:17:13;96697.41;;;0.24;97.75
34297;BME280;20564;42.902;25.336;2023-01-31T05:19:39;96705.31;;;0.37;98.00
34297;BME280;20564;42.902;25.336;2023-01-31T05:22:08;96715.75;;;0.36;97.76
34297;BME280;20564;42.902;25.336;2023-01-31T05:24:35;96696.78;;;0.35;97.83
34297;BME280;20564;42.902;25.336;2023-01-31T05:27:05;96707.44;;;0.31;98.60
34297;BME280;20564;42.902;25.336;2023-01-31T05:29:34;96719.09;;;0.38;98.91
34297;BME280;20564;42.902;25.336;2023-01-31T05:32:14;96720.25;;;0.32;99.51
34297;BME280;20564;42.902;25.336;2023-01-31T05:34:43;96729.28;;;0.41;99.95
34297;BME280;20564;42.902;25.336;2023-01-31T05:37:16;96734.28;;;0.44;99.68
34297;BME280;20564;42.902;25.336;2023-01-31T05:39:48;96727.41;;;0.43;100.00
34297;BME280;20564;42.902;25.336;2023-01-31T05:42:16;96733.41;;;0.43;100.00
34297;BME280;20564;42.902;25.336;2023-01-31T05:44:44;96740.53;;;0.40;100.00
34297;BME280;20564;42.902;25.336;2023-01-31T05:47:11;96744.63;;;0.44;100.00
34297;BME280;20564;42.902;25.336;2023-01-31T05:49:39;96745.69;;;0.40;99.81
34297;BME280;20564;42.902;25.336;2023-01-31T05:52:06;96758.13;;;0.49;99.98
34297;BME280;20564;42.902;25.336;2023-01-31T05:54:32;96744.25;;;0.50;99.57
34297;BME280;20564;42.902;25.336;2023-01-31T05:57:00;96735.94;;;0.45;99.43
34297;BME280;20564;42.902;25.336;2023-01-31T05:59:27;96734.06;;;0.47;99.82
34297;BME280;20564;42.902;25.336;2023-01-31T06:01:56;96744.19;;;0.52;100.00
34297;BME280;20564;42.902;25.336;2023-01-31T06:04:23;96737.25;;;0.52;100.00
34297;BME280;20564;42.902;25.336;2023-01-31T06:06:50;96747.50;;;0.54;100.00
34297;BME280;20564;42.902;25.336;2023-01-31T06:09:17;96749.44;;;0.50;99.94
34297;BME280;20564;42.902;25.336;2023-01-31T06:11:44;96747.59;;;0.52;100.00
34297;BME280;20564;42.902;25.336;2023-01-31T06:14:11;96754.44;;;0.53;99.76
34297;BME280;20564;42.902;25.336;2023-01-31T06:16:38;96763.13;;;0.52;99.85
34297;BME280;20564;42.902;25.336;2023-01-31T06:19:05;96762.47;;;0.48;100.00
34297;BME280;20564;42.902;25.336;2023-01-31T06:21:32;96770.53;;;0.44;100.00
34297;BME280;20564;42.902;25.336;2023-01-31T06:23:59;96765.34;;;0.44;100.00
34297;BME280;20564;42.902;25.336;2023-01-31T06:26:25;96768.50;;;0.49;100.00
34297;BME280;20564;42.902;25.336;2023-01-31T06:28:52;96772.75;;;0.50;100.00
34297;BME280;20564;42.902;25.336;2023-01-31T06:31:20;96771.63;;;0.54;100.00
34297;BME280;20564;42.902;25.336;2023-01-31T06:33:47;96776.97;;;0.51;100.00
34297;BME280;20564;42.902;25.336;2023-01-31T06:36:15;96771.81;;;0.51;100.00
34297;BME280;20564;42.902;25.336;2023-01-31T06:38:48;96775.31;;;0.50;100.00
34297;BME280;20564;42.902;25.336;2023-01-31T06:41:15;96788.28;;;0.50;100.00
34297;BME280;20564;42.902;25.336;2023-01-31T06:43:42;96793.28;;;0.53;100.00
34297;BME280;20564;42.902;25.336;2023-01-31T06:46:09;96778.03;;;0.48;99.90
34297;BME280;20564;42.902;25.336;2023-01-31T06:48:37;96776.81;;;0.54;100.00
34297;BME280;20564;42.902;25.336;2023-01-31T06:51:04;96764.44;;;0.59;99.64
34297;BME280;20564;42.902;25.336;2023-01-31T06:53:31;96756.09;;;0.54;99.27
34297;BME280;20564;42.902;25.336;2023-01-31T06:55:58;96762.38;;;0.50;99.90
34297;BME280;20564;42.902;25.336;2023-01-31T06:58:25;96762.75;;;0.58;98.90
34297;BME280;20564;42.902;25.336;2023-01-31T07:00:51;96768.31;;;0.52;99.55
34297;BME280;20564;42.902;25.336;2023-01-31T07:03:19;96778.41;;;0.57;99.71
34297;BME280;20564;42.902;25.336;2023-01-31T07:05:45;96770.81;;;0.54;99.94
34297;BME280;20564;42.902;25.336;2023-01-31T07:08:14;96773.69;;;0.63;100.00
34297;BME280;20564;42.902;25.336;2023-01-31T07:10:41;96774.63;;;0.62;99.83
34297;BME280;20564;42.902;25.336;2023-01-31T07:13:07;96783.97;;;0.65;99.66
34297;BME280;20564;42.902;25.336;2023-01-31T07:15:34;96794.03;;;0.69;99.40
34297;BME280;20564;42.902;25.336;2023-01-31T07:18:01;96790.56;;;0.70;99.63
34297;BME280;20564;42.902;25.336;2023-01-31T07:20:28;96804.50;;;0.68;99.64
34297;BME280;20564;42.902;25.336;2023-01-31T07:22:56;96802.69;;;0.70;99.61
34297;BME280;20564;42.902;25.336;2023-01-31T07:25:23;96815.00;;;0.81;100.00
34297;BME280;20564;42.902;25.336;2023-01-31T07:27:50;96816.34;;;0.72;99.61
34297;BME280;20564;42.902;25.336;2023-01-31T07:30:18;96803.50;;;0.70;99.25
34297;BME280;20564;42.902;25.336;2023-01-31T07:32:45;96818.66;;;0.77;100.00
34297;BME280;20564;42.902;25.336;2023-01-31T07:35:12;96814.53;;;0.74;99.31
34297;BME280;20564;42.902;25.336;2023-01-31T07:37:38;96822.03;;;0.79;100.00
34297;BME280;20564;42.902;25.336;2023-01-31T07:40:13;96825.91;;;0.86;99.49
34297;BME280;20564;42.902;25.336;2023-01-31T07:42:40;96818.63;;;0.92;100.00
34297;BME280;20564;42.902;25.336;2023-01-31T07:45:10;96816.94;;;0.91;99.03
34297;BME280;20564;42.902;25.336;2023-01-31T07:47:57;96808.53;;;1.02;99.35
34297;BME280;20564;42.902;25.336;2023-01-31T07:50:25;96806.03;;;1.01;99.36
34297;BME280;20564;42.902;25.336;2023-01-31T07:52:53;96811.72;;;1.07;99.23
34297;BME280;20564;42.902;25.336;2023-01-31T07:55:20;96810.03;;;1.06;100.00
34297;BME280;20564;42.902;25.336;2023-01-31T07:57:47;96796.22;;;1.06;99.19
34297;BME280;20564;42.902;25.336;2023-01-31T08:00:14;96805.13;;;1.02;99.23
34297;BME280;20564;42.902;25.336;2023-01-31T08:03:00;96798.44;;;0.98;99.24
34297;BME280;20564;42.902;25.336;2023-01-31T08:05:46;96808.53;;;1.02;99.40
34297;BME280;20564;42.902;25.336;2023-01-31T08:08:13;96825.59;;;1.06;99.87
34297;BME280;20564;42.902;25.336;2023-01-31T08:10:40;96838.09;;;1.14;100.00
34297;BME280;20564;42.902;25.336;2023-01-31T08:13:07;96835.56;;;1.12;100.00
34297;BME280;20564;42.902;25.336;2023-01-31T08:15:36;96831.69;;;1.05;100.00
34297;BME280;20564;42.902;25.336;2023-01-31T08:18:03;96824.75;;;1.06;99.76
34297;BME280;20564;42.902;25.336;2023-01-31T08:20:32;96832.25;;;1.10;100.00
34297;BME280;20564;42.902;25.336;2023-01-31T08:22:59;96828.38;;;1.03;100.00
34297;BME280;20564;42.902;25.336;2023-01-31T08:25:26;96835.22;;;1.18;100.00
34297;BME280;20564;42.902;25.336;2023-01-31T08:27:58;96833.00;;;1.12;100.00
34297;BME280;20564;42.902;25.336;2023-01-31T08:30:26;96837.63;;;1.22;100.00
34297;BME280;20564;42.902;25.336;2023-01-31T08:32:54;96834.22;;;1.21;100.00
34297;BME280;20564;42.902;25.336;2023-01-31T08:35:20;96839.84;;;1.28;100.00
34297;BME280;20564;42.902;25.336;2023-01-31T08:37:47;96835.41;;;1.30;99.35
34297;BME280;20564;42.902;25.336;2023-01-31T08:40:14;96843.66;;;1.36;99.46
34297;BME280;20564;42.902;25.336;2023-01-31T08:42:41;96835.59;;;1.27;98.35
34297;BME280;20564;42.902;25.336;2023-01-31T08:45:42;96844.84;;;1.31;99.41
34297;BME280;20564;42.902;25.336;2023-01-31T08:48:08;96841.16;;;1.35;99.23
34297;BME280;20564;42.902;25.336;2023-01-31T08:50:35;96844.31;;;1.40;99.84
34297;BME280;20564;42.902;25.336;2023-01-31T08:53:03;96847.63;;;1.42;99.94
34297;BME280;20564;42.902;25.336;2023-01-31T08:55:34;96854.13;;;1.49;99.24
34297;BME280;20564;42.902;25.336;2023-01-31T08:58:01;96851.91;;;1.57;98.74
34297;BME280;20564;42.902;25.336;2023-01-31T09:00:28;96832.06;;;1.56;98.83
34297;BME280;20564;42.902;25.336;2023-01-31T09:02:57;96846.16;;;1.66;98.27
34297;BME280;20564;42.902;25.336;2023-01-31T09:05:27;96844.50;;;1.65;97.19
34297;BME280;20564;42.902;25.336;2023-01-31T09:07:54;96855.59;;;1.67;96.81
34297;BME280;20564;42.902;25.336;2023-01-31T09:10:22;96853.00;;;1.67;97.20
34297;BME280;20564;42.902;25.336;2023-01-31T09:12:49;96852.81;;;1.71;97.15
34297;BME280;20564;42.902;25.336;2023-01-31T09:15:16;96852.81;;;1.71;97.70
34297;BME280;20564;42.902;25.336;2023-01-31T09:17:44;96858.00;;;1.71;96.89
34297;BME280;20564;42.902;25.336;2023-01-31T09:20:11;96851.63;;;1.62;97.61
34297;BME280;20564;42.902;25.336;2023-01-31T09:22:38;96857.53;;;1.64;97.26
34297;BME280;20564;42.902;25.336;2023-01-31T09:25:06;96851.72;;;1.60;97.55
34297;BME280;20564;42.902;25.336;2023-01-31T09:27:34;96850.59;;;1.64;98.11
34297;BME280;20564;42.902;25.336;2023-01-31T09:30:01;96846.53;;;1.60;98.21
34297;BME280;20564;42.902;25.336;2023-01-31T09:32:28;96845.31;;;1.66;97.83
34297;BME280;20564;42.902;25.336;2023-01-31T09:34:58;96848.00;;;1.64;96.69
34297;BME280;20564;42.902;25.336;2023-01-31T09:37:28;96839.50;;;1.62;96.73
34297;BME280;20564;42.902;25.336;2023-01-31T09:39:57;96840.78;;;1.69;97.78
34297;BME280;20564;42.902;25.336;2023-01-31T09:42:44;96850.97;;;1.73;95.94
34297;BME280;20564;42.902;25.336;2023-01-31T09:45:26;96849.28;;;1.72;96.56
34297;BME280;20564;42.902;25.336;2023-01-31T09:47:57;96849.50;;;1.68;96.86
34297;BME280;20564;42.902;25.336;2023-01-31T09:51:08;96843.09;;;1.74;97.67
34297;BME280;20564;42.902;25.336;2023-01-31T09:53:17;96835.41;;;1.73;97.89
34297;BME280;20564;42.902;25.336;2023-01-31T10:04:14;96827.22;;;1.79;96.59
34297;BME280;20564;42.902;25.336;2023-01-31T10:06:57;96824.84;;;1.76;96.74
34297;BME280;20564;42.902;25.336;2023-01-31T10:09:41;96823.16;;;1.75;96.33
34297;BME280;20564;42.902;25.336;2023-01-31T10:12:20;96821.31;;;1.77;96.95
34297;BME280;20564;42.902;25.336;2023-01-31T10:14:51;96798.34;;;1.71;96.64
34297;BME280;20564;42.902;25.336;2023-01-31T10:17:37;96815.38;;;1.75;96.90
34297;BME280;20564;42.902;25.336;2023-01-31T10:20:34;96807.22;;;1.81;97.87
34297;BME280;20564;42.902;25.336;2023-01-31T10:23:10;96812.03;;;1.87;95.82
34297;BME280;20564;42.902;25.336;2023-01-31T10:25:52;96813.50;;;1.91;95.32
34297;BME280;20564;42.902;25.336;2023-01-31T10:28:29;96814.81;;;1.84;95.33
34297;BME280;20564;42.902;25.336;2023-01-31T10:47:54;96794.25;;;2.08;95.03
34297;BME280;20564;42.902;25.336;2023-01-31T10:51:02;96798.09;;;2.02;94.51
34297;BME280;20564;42.902;25.336;2023-01-31T10:56:30;96799.06;;;2.14;95.11
34297;BME280;20564;42.902;25.336;2023-01-31T10:59:00;96803.69;;;2.23;94.29
34297;BME280;20564;42.902;25.336;2023-01-31T11:01:28;96796.41;;;2.28;93.92
34297;BME280;20564;42.902;25.336;2023-01-31T11:03:56;96798.72;;;2.33;94.53
34297;BME280;20564;42.902;25.336;2023-01-31T11:06:23;96794.66;;;2.29;92.85
34297;BME280;20564;42.902;25.336;2023-01-31T11:09:00;96788.81;;;2.25;93.19
34297;BME280;20564;42.902;25.336;2023-01-31T11:11:28;96789.47;;;2.29;94.59
34297;BME280;20564;42.902;25.336;2023-01-31T11:14:00;96781.97;;;2.24;93.72
34297;BME280;20564;42.902;25.336;2023-01-31T11:16:30;96790.59;;;2.25;94.83
34297;BME280;20564;42.902;25.336;2023-01-31T11:19:01;96777.09;;;2.20;93.50
34297;BME280;20564;42.902;25.336;2023-01-31T11:21:31;96781.03;;;2.25;94.38
34297;BME280;20564;42.902;25.336;2023-01-31T11:24:19;96781.56;;;2.30;94.65
34297;BME280;20564;42.902;25.336;2023-01-31T11:29:49;96767.66;;;2.31;93.44
34297;BME280;20564;42.902;25.336;2023-01-31T11:32:23;96786.56;;;2.33;94.30
34297;BME280;20564;42.902;25.336;2023-01-31T11:37:24;96786.81;;;2.43;93.45
34297;BME280;20564;42.902;25.336;2023-01-31T11:42:55;96781.50;;;2.45;92.50
34297;BME280;20564;42.902;25.336;2023-01-31T11:45:24;96777.69;;;2.50;93.52
34297;BME280;20564;42.902;25.336;2023-01-31T11:47:57;96797.13;;;2.57;93.12
34297;BME280;20564;42.902;25.336;2023-01-31T11:50:36;96780.72;;;2.70;91.99
34297;BME280;20564;42.902;25.336;2023-01-31T11:55:45;96793.44;;;2.87;89.87
34297;BME280;20564;42.902;25.336;2023-01-31T11:58:19;96787.84;;;2.93;91.11
34297;BME280;20564;42.902;25.336;2023-01-31T12:00:59;96790.75;;;3.01;89.87
34297;BME280;20564;42.902;25.336;2023-01-31T12:03:26;96785.94;;;3.21;88.97
34297;BME280;20564;42.902;25.336;2023-01-31T12:06:06;96785.75;;;3.24;89.11
34297;BME280;20564;42.902;25.336;2023-01-31T12:08:39;96784.50;;;3.29;88.55
34297;BME280;20564;42.902;25.336;2023-01-31T12:13:53;96773.97;;;3.31;88.94
34297;BME280;20564;42.902;25.336;2023-01-31T12:16:23;96771.09;;;3.23;88.96
34297;BME280;20564;42.902;25.336;2023-01-31T12:19:17;96772.44;;;3.16;89.62
34297;BME280;20564;42.902;25.336;2023-01-31T12:22:05;96780.13;;;3.30;89.45
34297;BME280;20564;42.902;25.336;2023-01-31T12:32:56;96793.84;;;3.06;88.81
34297;BME280;20564;42.902;25.336;2023-01-31T12:44:17;96788.34;;;2.85;90.74
34297;BME280;20564;42.902;25.336;2023-01-31T13:02:09;96810.91;;;3.10;90.62
34297;BME280;20564;42.902;25.336;2023-01-31T13:12:59;96811.84;;;3.09;90.88
34297;BME280;20564;42.902;25.336;2023-01-31T13:15:39;96816.34;;;3.07;91.54
34297;BME280;20564;42.902;25.336;2023-01-31T13:18:09;96817.16;;;3.08;90.33
34297;BME280;20564;42.902;25.336;2023-01-31T13:20:45;96800.63;;;3.09;91.23
34297;BME280;20564;42.902;25.336;2023-01-31T13:23:26;96808.00;;;3.02;90.57
34297;BME280;20564;42.902;25.336;2023-01-31T13:26:14;96816.19;;;2.83;90.86
34297;BME280;20564;42.902;25.336;2023-01-31T13:28:56;96827.94;;;2.76;93.01
34297;BME280;20564;42.902;25.336;2023-01-31T13:31:34;96820.63;;;2.69;93.34
34297;BME280;20564;42.902;25.336;2023-01-31T13:37:21;96828.31;;;2.57;94.90
34297;BME280;20564;42.902;25.336;2023-01-31T13:40:02;96834.97;;;2.61;95.19
34297;BME280;20564;42.902;25.336;2023-01-31T13:42:30;96831.84;;;2.56;95.57
34297;BME280;20564;42.902;25.336;2023-01-31T13:45:02;96840.34;;;2.58;95.88
34297;BME280;20564;42.902;25.336;2023-01-31T13:47:57;96849.66;;;2.48;96.70
34297;BME280;20564;42.902;25.336;2023-01-31T13:50:37;96837.38;;;2.37;98.36
34297;BME280;20564;42.902;25.336;2023-01-31T13:53:12;96829.88;;;2.33;99.56
34297;BME280;20564;42.902;25.336;2023-01-31T13:55:43;96835.25;;;2.30;99.97
34297;BME280;20564;42.902;25.336;2023-01-31T13:58:18;96840.25;;;2.33;100.00
34297;BME280;20564;42.902;25.336;2023-01-31T14:00:57;96826.16;;;2.37;100.00
34297;BME280;20564;42.902;25.336;2023-01-31T14:03:27;96836.53;;;2.37;100.00
34297;BME280;20564;42.902;25.336;2023-01-31T14:05:57;96834.31;;;2.45;100.00
34297;BME280;20564;42.902;25.336;2023-01-31T14:08:34;96842.81;;;2.47;100.00
34297;BME280;20564;42.902;25.336;2023-01-31T14:16:42;96847.56;;;2.40;100.00
34297;BME280;20564;42.902;25.336;2023-01-31T14:19:30;96850.06;;;2.42;100.00
34297;BME280;20564;42.902;25.336;2023-01-31T14:22:19;96857.13;;;2.40;100.00
34297;BME280;20564;42.902;25.336;2023-01-31T14:27:38;96865.28;;;2.34;100.00
34297;BME280;20564;42.902;25.336;2023-01-31T14:30:22;96868.81;;;2.06;100.00
34297;BME280;20564;42.902;25.336;2023-01-31T14:33:15;96879.78;;;1.82;100.00
34297;BME280;20564;42.902;25.336;2023-01-31T14:36:17;96893.03;;;1.63;100.00
34297;BME280;20564;42.902;25.336;2023-01-31T14:42:18;96905.44;;;1.44;100.00
34297;BME280;20564;42.902;25.336;2023-01-31T14:53:57;96906.00;;;1.49;100.00
34297;BME280;20564;42.902;25.336;2023-01-31T14:59:28;96900.81;;;1.49;100.00
34297;BME280;20564;42.902;25.336;2023-01-31T15:01:58;96913.13;;;1.60;100.00
34297;BME280;20564;42.902;25.336;2023-01-31T15:04:27;96908.34;;;1.54;100.00
34297;BME280;20564;42.902;25.336;2023-01-31T15:06:55;96906.75;;;1.51;100.00
34297;BME280;20564;42.902;25.336;2023-01-31T15:11:54;96921.28;;;1.54;100.00
34297;BME280;20564;42.902;25.336;2023-01-31T15:14:42;96926.38;;;1.55;100.00
34297;BME280;20564;42.902;25.336;2023-01-31T15:20:17;96924.16;;;1.63;100.00
34297;BME280;20564;42.902;25.336;2023-01-31T15:22:45;96929.53;;;1.60;100.00
34297;BME280;20564;42.902;25.336;2023-01-31T15:25:45;96942.25;;;1.65;100.00
34297;BME280;20564;42.902;25.336;2023-01-31T15:28:33;96945.09;;;1.60;100.00
34297;BME280;20564;42.902;25.336;2023-01-31T15:31:06;96938.41;;;1.56;100.00
34297;BME280;20564;42.902;25.336;2023-01-31T15:33:50;96935.94;;;1.55;100.00
34297;BME280;20564;42.902;25.336;2023-01-31T15:40:14;96947.47;;;1.49;100.00
34297;BME280;20564;42.902;25.336;2023-01-31T15:42:44;96952.41;;;1.54;100.00